sensor_id;sensor_type;location;lat;lon;timestamp;P1;durP1;ratioP1;P2;durP2;ratioP2
76447;SDS011;65284;51.040;13.722;2023-08-07T00:00:17;4.65;;;2.45;;
76447;SDS011;65284;51.040;13.722;2023-08-07T00:02:43;3.75;;;2.30;;
76447;SDS011;65284;51.040;13.722;2023-08-07T00:05:10;3.72;;;2.40;;
76447;SDS011;65284;51.040;13.722;2023-08-07T00:07:37;6.60;;;2.40;;
76447;SDS011;65284;51.040;13.722;2023-08-07T00:10:03;3.40;;;2.20;;
76447;SDS011;65284;51.040;13.722;2023-08-07T00:12:30;3.00;;;2.00;;
76447;SDS011;65284;51.040;13.722;2023-08-07T00:14:56;5.38;;;2.30;;
76447;SDS011;65284;51.040;13.722;2023-08-07T00:17:23;4.40;;;2.00;;
76447;SDS011;65284;51.040;13.722;2023-08-07T00:19:49;4.60;;;2.10;;
76447;SDS011;65284;51.040;13.722;2023-08-07T00:22:17;4.35;;;2.13;;
76447;SDS011;65284;51.040;13.722;2023-08-07T00:24:44;3.17;;;2.05;;
76447;SDS011;65284;51.040;13.722;2023-08-07T00:27:10;4.55;;;2.08;;
76447;SDS011;65284;51.040;13.722;2023-08-07T00:29:38;3.33;;;2.00;;
76447;SDS011;65284;51.040;13.722;2023-08-07T00:32:05;5.47;;;2.13;;
76447;SDS011;65284;51.040;13.722;2023-08-07T00:34:32;3.85;;;2.05;;
76447;SDS011;65284;51.040;13.722;2023-08-07T00:36:58;5.82;;;2.38;;
76447;SDS011;65284;51.040;13.722;2023-08-07T00:39:25;5.63;;;2.28;;
76447;SDS011;65284;51.040;13.722;2023-08-07T00:41:52;6.05;;;2.00;;
76447;SDS011;65284;51.040;13.722;2023-08-07T00:44:19;6.45;;;2.00;;
76447;SDS011;65284;51.040;13.722;2023-08-07T00:46:45;3.67;;;2.10;;
76447;SDS011;65284;51.040;13.722;2023-08-07T00:49:12;4.60;;;2.10;;
76447;SDS011;65284;51.040;13.722;2023-08-07T00:51:39;5.72;;;2.25;;
76447;SDS011;65284;51.040;13.722;2023-08-07T00:54:07;3.70;;;2.33;;
76447;SDS011;65284;51.040;13.722;2023-08-07T00:56:35;4.03;;;2.92;;
76447;SDS011;65284;51.040;13.722;2023-08-07T00:59:04;4.53;;;2.90;;
76447;SDS011;65284;51.040;13.722;2023-08-07T01:01:30;5.30;;;3.35;;
76447;SDS011;65284;51.040;13.722;2023-08-07T01:03:57;4.15;;;2.90;;
76447;SDS011;65284;51.040;13.722;2023-08-07T01:06:23;6.45;;;3.35;;
76447;SDS011;65284;51.040;13.722;2023-08-07T01:08:50;5.57;;;3.30;;
76447;SDS011;65284;51.040;13.722;2023-08-07T01:11:19;4.70;;;2.95;;
76447;SDS011;65284;51.040;13.722;2023-08-07T01:16:29;3.88;;;2.72;;
76447;SDS011;65284;51.040;13.722;2023-08-07T01:19:02;4.68;;;2.90;;
76447;SDS011;65284;51.040;13.722;2023-08-07T01:21:30;9.38;;;4.03;;
76447;SDS011;65284;51.040;13.722;2023-08-07T01:23:58;5.72;;;3.35;;
76447;SDS011;65284;51.040;13.722;2023-08-07T01:26:24;4.97;;;3.13;;
76447;SDS011;65284;51.040;13.722;2023-08-07T01:31:38;4.82;;;3.50;;
76447;SDS011;65284;51.040;13.722;2023-08-07T01:34:07;7.40;;;3.55;;
76447;SDS011;65284;51.040;13.722;2023-08-07T01:36:36;6.85;;;3.50;;
76447;SDS011;65284;51.040;13.722;2023-08-07T01:39:05;4.57;;;3.03;;
76447;SDS011;65284;51.040;13.722;2023-08-07T01:41:33;7.05;;;3.45;;
76447;SDS011;65284;51.040;13.722;2023-08-07T01:44:01;6.05;;;3.30;;
76447;SDS011;65284;51.040;13.722;2023-08-07T01:46:29;4.70;;;3.22;;
76447;SDS011;65284;51.040;13.722;2023-08-07T01:48:55;7.13;;;3.55;;
76447;SDS011;65284;51.040;13.722;2023-08-07T01:51:21;5.20;;;3.15;;
76447;SDS011;65284;51.040;13.722;2023-08-07T01:53:48;8.32;;;3.60;;
76447;SDS011;65284;51.040;13.722;2023-08-07T01:56:14;5.55;;;3.40;;
76447;SDS011;65284;51.040;13.722;2023-08-07T01:58:41;5.18;;;3.00;;
76447;SDS011;65284;51.040;13.722;2023-08-07T02:01:07;4.57;;;3.17;;
76447;SDS011;65284;51.040;13.722;2023-08-07T02:03:34;4.35;;;3.28;;
76447;SDS011;65284;51.040;13.722;2023-08-07T02:06:01;6.07;;;3.55;;
76447;SDS011;65284;51.040;13.722;2023-08-07T02:08:28;5.88;;;3.88;;
76447;SDS011;65284;51.040;13.722;2023-08-07T02:10:54;6.70;;;4.18;;
76447;SDS011;65284;51.040;13.722;2023-08-07T02:13:21;6.88;;;4.30;;
76447;SDS011;65284;51.040;13.722;2023-08-07T02:15:47;8.10;;;5.28;;
76447;SDS011;65284;51.040;13.722;2023-08-07T02:18:14;7.75;;;5.05;;
76447;SDS011;65284;51.040;13.722;2023-08-07T02:20:41;7.45;;;4.93;;
76447;SDS011;65284;51.040;13.722;2023-08-07T02:23:07;10.95;;;5.10;;
76447;SDS011;65284;51.040;13.722;2023-08-07T02:25:34;7.00;;;5.03;;
76447;SDS011;65284;51.040;13.722;2023-08-07T02:28:03;10.65;;;5.32;;
76447;SDS011;65284;51.040;13.722;2023-08-07T02:30:30;9.27;;;5.47;;
76447;SDS011;65284;51.040;13.722;2023-08-07T02:32:57;9.77;;;5.30;;
76447;SDS011;65284;51.040;13.722;2023-08-07T02:35:23;8.82;;;5.50;;
76447;SDS011;65284;51.040;13.722;2023-08-07T02:37:50;8.20;;;5.60;;
76447;SDS011;65284;51.040;13.722;2023-08-07T02:40:17;8.02;;;5.63;;
76447;SDS011;65284;51.040;13.722;2023-08-07T02:42:45;8.15;;;5.57;;
76447;SDS011;65284;51.040;13.722;2023-08-07T02:45:12;7.25;;;5.20;;
76447;SDS011;65284;51.040;13.722;2023-08-07T02:47:38;9.18;;;5.45;;
76447;SDS011;65284;51.040;13.722;2023-08-07T02:50:05;8.43;;;4.90;;
76447;SDS011;65284;51.040;13.722;2023-08-07T02:52:31;7.22;;;4.97;;
76447;SDS011;65284;51.040;13.722;2023-08-07T02:54:58;8.25;;;5.07;;
76447;SDS011;65284;51.040;13.722;2023-08-07T02:57:24;7.93;;;4.80;;
76447;SDS011;65284;51.040;13.722;2023-08-07T02:59:51;7.13;;;5.30;;
76447;SDS011;65284;51.040;13.722;2023-08-07T03:02:17;7.60;;;5.35;;
76447;SDS011;65284;51.040;13.722;2023-08-07T03:04:44;8.45;;;5.95;;
76447;SDS011;65284;51.040;13.722;2023-08-07T03:07:10;6.25;;;4.40;;
76447;SDS011;65284;51.040;13.722;2023-08-07T03:09:37;5.93;;;4.38;;
76447;SDS011;65284;51.040;13.722;2023-08-07T03:12:03;7.40;;;3.75;;
76447;SDS011;65284;51.040;13.722;2023-08-07T03:14:30;5.18;;;3.90;;
76447;SDS011;65284;51.040;13.722;2023-08-07T03:16:58;6.88;;;3.17;;
76447;SDS011;65284;51.040;13.722;2023-08-07T03:19:24;6.93;;;3.53;;
76447;SDS011;65284;51.040;13.722;2023-08-07T03:21:51;5.85;;;3.42;;
76447;SDS011;65284;51.040;13.722;2023-08-07T03:24:17;4.72;;;2.97;;
76447;SDS011;65284;51.040;13.722;2023-08-07T03:26:44;7.80;;;3.20;;
76447;SDS011;65284;51.040;13.722;2023-08-07T03:29:10;6.68;;;3.25;;
76447;SDS011;65284;51.040;13.722;2023-08-07T03:31:36;5.97;;;3.67;;
76447;SDS011;65284;51.040;13.722;2023-08-07T03:34:03;5.32;;;2.72;;
76447;SDS011;65284;51.040;13.722;2023-08-07T03:36:30;8.77;;;3.50;;
76447;SDS011;65284;51.040;13.722;2023-08-07T03:38:56;5.35;;;3.53;;
76447;SDS011;65284;51.040;13.722;2023-08-07T03:41:23;7.45;;;3.80;;
76447;SDS011;65284;51.040;13.722;2023-08-07T03:43:49;7.43;;;3.75;;
76447;SDS011;65284;51.040;13.722;2023-08-07T03:46:16;9.48;;;3.75;;
76447;SDS011;65284;51.040;13.722;2023-08-07T03:48:42;6.97;;;3.92;;
76447;SDS011;65284;51.040;13.722;2023-08-07T03:51:09;9.13;;;4.30;;
76447;SDS011;65284;51.040;13.722;2023-08-07T03:53:35;8.93;;;3.90;;
76447;SDS011;65284;51.040;13.722;2023-08-07T03:56:01;9.20;;;4.38;;
76447;SDS011;65284;51.040;13.722;2023-08-07T03:58:28;9.82;;;5.40;;
76447;SDS011;65284;51.040;13.722;2023-08-07T04:00:55;10.00;;;4.50;;
76447;SDS011;65284;51.040;13.722;2023-08-07T04:03:22;10.25;;;4.85;;
76447;SDS011;65284;51.040;13.722;2023-08-07T04:05:52;19.55;;;7.13;;
76447;SDS011;65284;51.040;13.722;2023-08-07T04:08:20;9.98;;;5.30;;
76447;SDS011;65284;51.040;13.722;2023-08-07T04:13:43;14.80;;;6.95;;
76447;SDS011;65284;51.040;13.722;2023-08-07T04:16:10;13.23;;;7.35;;
76447;SDS011;65284;51.040;13.722;2023-08-07T04:18:36;12.45;;;7.07;;
76447;SDS011;65284;51.040;13.722;2023-08-07T04:21:03;12.25;;;7.57;;
76447;SDS011;65284;51.040;13.722;2023-08-07T04:23:29;16.67;;;7.80;;
76447;SDS011;65284;51.040;13.722;2023-08-07T04:25:57;13.80;;;6.78;;
76447;SDS011;65284;51.040;13.722;2023-08-07T04:28:24;12.35;;;7.32;;
76447;SDS011;65284;51.040;13.722;2023-08-07T04:30:50;14.63;;;7.82;;
76447;SDS011;65284;51.040;13.722;2023-08-07T04:33:18;15.13;;;7.88;;
76447;SDS011;65284;51.040;13.722;2023-08-07T04:35:46;14.45;;;8.45;;
76447;SDS011;65284;51.040;13.722;2023-08-07T04:38:16;15.30;;;8.85;;
76447;SDS011;65284;51.040;13.722;2023-08-07T04:40:44;16.48;;;8.32;;
76447;SDS011;65284;51.040;13.722;2023-08-07T04:43:11;11.75;;;8.27;;
76447;SDS011;65284;51.040;13.722;2023-08-07T04:45:38;12.15;;;7.53;;
76447;SDS011;65284;51.040;13.722;2023-08-07T04:48:08;16.10;;;8.93;;
76447;SDS011;65284;51.040;13.722;2023-08-07T04:53:01;12.98;;;8.23;;
76447;SDS011;65284;51.040;13.722;2023-08-07T04:55:27;13.40;;;8.05;;
76447;SDS011;65284;51.040;13.722;2023-08-07T04:57:54;17.02;;;9.25;;
76447;SDS011;65284;51.040;13.722;2023-08-07T05:00:22;13.30;;;8.52;;
76447;SDS011;65284;51.040;13.722;2023-08-07T05:02:49;13.13;;;8.07;;
76447;SDS011;65284;51.040;13.722;2023-08-07T05:05:16;15.27;;;8.98;;
76447;SDS011;65284;51.040;13.722;2023-08-07T05:07:43;16.33;;;8.88;;
76447;SDS011;65284;51.040;13.722;2023-08-07T05:10:10;14.63;;;8.55;;
76447;SDS011;65284;51.040;13.722;2023-08-07T05:12:36;14.30;;;7.82;;
76447;SDS011;65284;51.040;13.722;2023-08-07T05:15:03;14.10;;;8.70;;
76447;SDS011;65284;51.040;13.722;2023-08-07T05:17:30;16.10;;;8.40;;
76447;SDS011;65284;51.040;13.722;2023-08-07T05:19:57;16.88;;;8.43;;
76447;SDS011;65284;51.040;13.722;2023-08-07T05:22:24;16.13;;;8.63;;
76447;SDS011;65284;51.040;13.722;2023-08-07T05:24:50;12.13;;;7.72;;
76447;SDS011;65284;51.040;13.722;2023-08-07T05:27:17;11.82;;;7.70;;
76447;SDS011;65284;51.040;13.722;2023-08-07T05:29:43;15.20;;;7.95;;
76447;SDS011;65284;51.040;13.722;2023-08-07T05:32:10;11.63;;;7.57;;
76447;SDS011;65284;51.040;13.722;2023-08-07T05:34:38;10.95;;;7.65;;
76447;SDS011;65284;51.040;13.722;2023-08-07T05:37:04;11.98;;;7.13;;
76447;SDS011;65284;51.040;13.722;2023-08-07T05:39:32;12.80;;;6.68;;
76447;SDS011;65284;51.040;13.722;2023-08-07T05:41:59;10.63;;;6.60;;
76447;SDS011;65284;51.040;13.722;2023-08-07T05:44:26;11.80;;;6.38;;
76447;SDS011;65284;51.040;13.722;2023-08-07T05:46:53;11.70;;;6.20;;
76447;SDS011;65284;51.040;13.722;2023-08-07T05:49:19;9.93;;;5.78;;
76447;SDS011;65284;51.040;13.722;2023-08-07T05:51:50;8.38;;;5.45;;
76447;SDS011;65284;51.040;13.722;2023-08-07T05:54:17;9.68;;;5.68;;
76447;SDS011;65284;51.040;13.722;2023-08-07T05:56:43;10.32;;;5.18;;
76447;SDS011;65284;51.040;13.722;2023-08-07T05:59:10;7.70;;;4.55;;
76447;SDS011;65284;51.040;13.722;2023-08-07T06:01:36;7.28;;;4.60;;
76447;SDS011;65284;51.040;13.722;2023-08-07T06:04:03;7.35;;;4.70;;
76447;SDS011;65284;51.040;13.722;2023-08-07T06:06:30;9.40;;;4.85;;
76447;SDS011;65284;51.040;13.722;2023-08-07T06:09:00;8.90;;;4.38;;
76447;SDS011;65284;51.040;13.722;2023-08-07T06:11:28;9.65;;;4.78;;
76447;SDS011;65284;51.040;13.722;2023-08-07T06:13:55;7.97;;;4.40;;
76447;SDS011;65284;51.040;13.722;2023-08-07T06:16:22;7.78;;;4.20;;
76447;SDS011;65284;51.040;13.722;2023-08-07T06:18:49;6.70;;;4.05;;
76447;SDS011;65284;51.040;13.722;2023-08-07T06:21:15;7.40;;;4.35;;
76447;SDS011;65284;51.040;13.722;2023-08-07T06:23:42;9.48;;;4.10;;
76447;SDS011;65284;51.040;13.722;2023-08-07T06:26:08;11.25;;;4.68;;
76447;SDS011;65284;51.040;13.722;2023-08-07T06:28:35;7.45;;;4.43;;
76447;SDS011;65284;51.040;13.722;2023-08-07T06:31:06;6.65;;;3.80;;
76447;SDS011;65284;51.040;13.722;2023-08-07T06:33:33;5.65;;;3.60;;
76447;SDS011;65284;51.040;13.722;2023-08-07T06:36:00;6.10;;;3.70;;
76447;SDS011;65284;51.040;13.722;2023-08-07T06:38:28;6.95;;;3.67;;
76447;SDS011;65284;51.040;13.722;2023-08-07T06:40:54;7.43;;;3.47;;
76447;SDS011;65284;51.040;13.722;2023-08-07T06:43:21;5.80;;;3.28;;
76447;SDS011;65284;51.040;13.722;2023-08-07T06:45:51;6.93;;;3.45;;
76447;SDS011;65284;51.040;13.722;2023-08-07T06:48:21;6.45;;;3.67;;
76447;SDS011;65284;51.040;13.722;2023-08-07T06:50:51;5.93;;;3.20;;
76447;SDS011;65284;51.040;13.722;2023-08-07T06:53:17;6.78;;;2.97;;
76447;SDS011;65284;51.040;13.722;2023-08-07T06:55:45;5.60;;;3.30;;
76447;SDS011;65284;51.040;13.722;2023-08-07T06:58:11;5.90;;;3.40;;
76447;SDS011;65284;51.040;13.722;2023-08-07T07:00:38;7.03;;;3.55;;
76447;SDS011;65284;51.040;13.722;2023-08-07T07:03:04;5.03;;;3.00;;
76447;SDS011;65284;51.040;13.722;2023-08-07T07:05:31;6.40;;;2.88;;
76447;SDS011;65284;51.040;13.722;2023-08-07T07:07:59;6.38;;;2.75;;
76447;SDS011;65284;51.040;13.722;2023-08-07T07:10:25;5.07;;;2.58;;
76447;SDS011;65284;51.040;13.722;2023-08-07T07:12:52;4.13;;;2.47;;
76447;SDS011;65284;51.040;13.722;2023-08-07T07:15:19;6.40;;;2.50;;
76447;SDS011;65284;51.040;13.722;2023-08-07T07:17:45;5.57;;;2.53;;
76447;SDS011;65284;51.040;13.722;2023-08-07T07:20:12;4.10;;;2.60;;
76447;SDS011;65284;51.040;13.722;2023-08-07T07:22:39;6.00;;;2.38;;
76447;SDS011;65284;51.040;13.722;2023-08-07T07:25:06;6.57;;;2.58;;
76447;SDS011;65284;51.040;13.722;2023-08-07T07:27:33;5.38;;;2.58;;
76447;SDS011;65284;51.040;13.722;2023-08-07T07:29:59;6.60;;;2.45;;
76447;SDS011;65284;51.040;13.722;2023-08-07T07:32:26;3.67;;;2.40;;
76447;SDS011;65284;51.040;13.722;2023-08-07T07:34:52;5.35;;;2.42;;
76447;SDS011;65284;51.040;13.722;2023-08-07T07:37:19;4.30;;;2.40;;
76447;SDS011;65284;51.040;13.722;2023-08-07T07:39:46;4.38;;;2.05;;
76447;SDS011;65284;51.040;13.722;2023-08-07T07:42:12;5.60;;;2.03;;
76447;SDS011;65284;51.040;13.722;2023-08-07T07:44:39;4.55;;;1.95;;
76447;SDS011;65284;51.040;13.722;2023-08-07T07:47:06;5.20;;;2.00;;
76447;SDS011;65284;51.040;13.722;2023-08-07T07:49:35;3.38;;;1.70;;
76447;SDS011;65284;51.040;13.722;2023-08-07T07:52:02;4.10;;;1.85;;
76447;SDS011;65284;51.040;13.722;2023-08-07T07:54:28;3.13;;;1.67;;
76447;SDS011;65284;51.040;13.722;2023-08-07T07:56:55;4.50;;;1.60;;
76447;SDS011;65284;51.040;13.722;2023-08-07T07:59:23;3.63;;;1.70;;
76447;SDS011;65284;51.040;13.722;2023-08-07T08:01:49;3.38;;;1.60;;
76447;SDS011;65284;51.040;13.722;2023-08-07T08:04:17;4.60;;;1.45;;
76447;SDS011;65284;51.040;13.722;2023-08-07T08:06:44;3.40;;;1.55;;
76447;SDS011;65284;51.040;13.722;2023-08-07T08:09:10;4.22;;;1.40;;
76447;SDS011;65284;51.040;13.722;2023-08-07T08:11:37;2.78;;;1.25;;
76447;SDS011;65284;51.040;13.722;2023-08-07T08:14:04;2.67;;;1.30;;
76447;SDS011;65284;51.040;13.722;2023-08-07T08:16:30;2.83;;;1.13;;
76447;SDS011;65284;51.040;13.722;2023-08-07T08:18:57;2.30;;;1.27;;
76447;SDS011;65284;51.040;13.722;2023-08-07T08:21:23;5.75;;;1.38;;
76447;SDS011;65284;51.040;13.722;2023-08-07T08:23:50;3.72;;;1.35;;
76447;SDS011;65284;51.040;13.722;2023-08-07T08:26:16;2.95;;;1.33;;
76447;SDS011;65284;51.040;13.722;2023-08-07T08:28:43;4.07;;;1.40;;
76447;SDS011;65284;51.040;13.722;2023-08-07T08:31:09;2.78;;;1.23;;
76447;SDS011;65284;51.040;13.722;2023-08-07T08:33:36;3.30;;;1.55;;
76447;SDS011;65284;51.040;13.722;2023-08-07T08:36:02;4.70;;;1.35;;
76447;SDS011;65284;51.040;13.722;2023-08-07T08:38:29;3.42;;;1.30;;
76447;SDS011;65284;51.040;13.722;2023-08-07T08:40:58;3.45;;;1.23;;
76447;SDS011;65284;51.040;13.722;2023-08-07T08:43:29;3.08;;;1.40;;
76447;SDS011;65284;51.040;13.722;2023-08-07T08:46:01;3.97;;;1.40;;
76447;SDS011;65284;51.040;13.722;2023-08-07T08:48:31;3.25;;;1.33;;
76447;SDS011;65284;51.040;13.722;2023-08-07T08:51:02;2.85;;;1.40;;
76447;SDS011;65284;51.040;13.722;2023-08-07T08:53:30;3.10;;;1.40;;
76447;SDS011;65284;51.040;13.722;2023-08-07T08:55:58;2.60;;;1.20;;
76447;SDS011;65284;51.040;13.722;2023-08-07T08:58:26;3.50;;;1.30;;
76447;SDS011;65284;51.040;13.722;2023-08-07T09:00:54;2.22;;;1.17;;
76447;SDS011;65284;51.040;13.722;2023-08-07T09:03:20;2.85;;;1.10;;
76447;SDS011;65284;51.040;13.722;2023-08-07T09:05:47;4.13;;;1.00;;
76447;SDS011;65284;51.040;13.722;2023-08-07T09:08:17;1.75;;;1.00;;
76447;SDS011;65284;51.040;13.722;2023-08-07T09:10:44;1.83;;;0.80;;
76447;SDS011;65284;51.040;13.722;2023-08-07T09:13:12;3.10;;;0.95;;
76447;SDS011;65284;51.040;13.722;2023-08-07T09:15:42;2.90;;;1.10;;
76447;SDS011;65284;51.040;13.722;2023-08-07T09:18:14;1.95;;;0.93;;
76447;SDS011;65284;51.040;13.722;2023-08-07T09:20:41;3.10;;;1.05;;
76447;SDS011;65284;51.040;13.722;2023-08-07T09:23:08;4.43;;;1.00;;
76447;SDS011;65284;51.040;13.722;2023-08-07T09:25:35;2.97;;;1.10;;
76447;SDS011;65284;51.040;13.722;2023-08-07T09:28:02;2.42;;;0.90;;
76447;SDS011;65284;51.040;13.722;2023-08-07T09:30:33;2.67;;;1.08;;
76447;SDS011;65284;51.040;13.722;2023-08-07T09:33:01;2.53;;;1.00;;
76447;SDS011;65284;51.040;13.722;2023-08-07T09:35:29;3.65;;;0.90;;
76447;SDS011;65284;51.040;13.722;2023-08-07T09:37:57;2.67;;;1.05;;
76447;SDS011;65284;51.040;13.722;2023-08-07T09:40:24;2.33;;;0.93;;
76447;SDS011;65284;51.040;13.722;2023-08-07T09:42:52;2.20;;;0.80;;
76447;SDS011;65284;51.040;13.722;2023-08-07T09:47:54;2.15;;;0.90;;
76447;SDS011;65284;51.040;13.722;2023-08-07T09:50:32;3.13;;;0.90;;
76447;SDS011;65284;51.040;13.722;2023-08-07T09:52:59;3.40;;;1.00;;
76447;SDS011;65284;51.040;13.722;2023-08-07T09:55:26;1.95;;;0.80;;
76447;SDS011;65284;51.040;13.722;2023-08-07T09:57:53;2.78;;;0.90;;
76447;SDS011;65284;51.040;13.722;2023-08-07T10:00:20;2.55;;;0.80;;
76447;SDS011;65284;51.040;13.722;2023-08-07T10:02:47;3.85;;;0.85;;
76447;SDS011;65284;51.040;13.722;2023-08-07T10:05:15;3.70;;;0.82;;
76447;SDS011;65284;51.040;13.722;2023-08-07T10:07:42;3.42;;;0.88;;
76447;SDS011;65284;51.040;13.722;2023-08-07T10:10:09;1.75;;;0.82;;
76447;SDS011;65284;51.040;13.722;2023-08-07T10:12:37;1.67;;;0.95;;
76447;SDS011;65284;51.040;13.722;2023-08-07T10:15:05;3.83;;;1.10;;
76447;SDS011;65284;51.040;13.722;2023-08-07T10:17:32;2.03;;;0.80;;
76447;SDS011;65284;51.040;13.722;2023-08-07T10:19:59;3.13;;;0.70;;
76447;SDS011;65284;51.040;13.722;2023-08-07T10:22:27;3.08;;;0.80;;
76447;SDS011;65284;51.040;13.722;2023-08-07T10:24:57;2.08;;;0.70;;
76447;SDS011;65284;51.040;13.722;2023-08-07T10:27:27;1.58;;;0.73;;
76447;SDS011;65284;51.040;13.722;2023-08-07T10:29:56;2.63;;;0.90;;
76447;SDS011;65284;51.040;13.722;2023-08-07T10:32:24;2.30;;;1.10;;
76447;SDS011;65284;51.040;13.722;2023-08-07T10:34:52;2.88;;;1.20;;
76447;SDS011;65284;51.040;13.722;2023-08-07T10:40:09;2.88;;;1.27;;
76447;SDS011;65284;51.040;13.722;2023-08-07T10:45:39;2.67;;;1.40;;
76447;SDS011;65284;51.040;13.722;2023-08-07T10:48:06;2.47;;;1.20;;
76447;SDS011;65284;51.040;13.722;2023-08-07T10:53:20;1.90;;;1.08;;
76447;SDS011;65284;51.040;13.722;2023-08-07T10:55:54;4.97;;;1.30;;
76447;SDS011;65284;51.040;13.722;2023-08-07T10:58:29;3.58;;;1.42;;
76447;SDS011;65284;51.040;13.722;2023-08-07T11:03:44;2.00;;;0.90;;
76447;SDS011;65284;51.040;13.722;2023-08-07T11:06:21;2.17;;;1.02;;
76447;SDS011;65284;51.040;13.722;2023-08-07T11:08:49;3.72;;;1.58;;
76447;SDS011;65284;51.040;13.722;2023-08-07T11:11:16;2.03;;;1.05;;
76447;SDS011;65284;51.040;13.722;2023-08-07T11:13:43;1.67;;;1.00;;
76447;SDS011;65284;51.040;13.722;2023-08-07T11:16:10;2.75;;;0.88;;
76447;SDS011;65284;51.040;13.722;2023-08-07T11:18:37;3.65;;;0.90;;
76447;SDS011;65284;51.040;13.722;2023-08-07T11:21:10;1.83;;;0.90;;
76447;SDS011;65284;51.040;13.722;2023-08-07T11:23:38;4.20;;;0.70;;
76447;SDS011;65284;51.040;13.722;2023-08-07T11:26:06;4.63;;;1.00;;
76447;SDS011;65284;51.040;13.722;2023-08-07T11:28:33;3.28;;;0.90;;
76447;SDS011;65284;51.040;13.722;2023-08-07T11:31:00;2.35;;;0.93;;
76447;SDS011;65284;51.040;13.722;2023-08-07T11:33:27;2.85;;;0.90;;
76447;SDS011;65284;51.040;13.722;2023-08-07T11:35:54;3.28;;;0.70;;
76447;SDS011;65284;51.040;13.722;2023-08-07T11:40:59;2.30;;;0.80;;
76447;SDS011;65284;51.040;13.722;2023-08-07T11:43:31;2.28;;;0.82;;
76447;SDS011;65284;51.040;13.722;2023-08-07T11:46:03;1.52;;;0.60;;
76447;SDS011;65284;51.040;13.722;2023-08-07T11:48:32;2.97;;;0.73;;
76447;SDS011;65284;51.040;13.722;2023-08-07T11:51:00;1.65;;;0.70;;
76447;SDS011;65284;51.040;13.722;2023-08-07T11:53:28;1.65;;;0.80;;
76447;SDS011;65284;51.040;13.722;2023-08-07T11:58:24;2.60;;;0.70;;
76447;SDS011;65284;51.040;13.722;2023-08-07T12:00:52;1.77;;;0.50;;
76447;SDS011;65284;51.040;13.722;2023-08-07T12:03:27;1.35;;;0.70;;
76447;SDS011;65284;51.040;13.722;2023-08-07T12:05:58;0.93;;;0.50;;
76447;SDS011;65284;51.040;13.722;2023-08-07T12:08:34;1.65;;;0.65;;
76447;SDS011;65284;51.040;13.722;2023-08-07T12:11:04;1.55;;;0.55;;
76447;SDS011;65284;51.040;13.722;2023-08-07T12:13:32;1.67;;;0.45;;
76447;SDS011;65284;51.040;13.722;2023-08-07T12:16:02;0.85;;;0.50;;
76447;SDS011;65284;51.040;13.722;2023-08-07T12:18:30;1.35;;;0.50;;
76447;SDS011;65284;51.040;13.722;2023-08-07T12:21:01;1.40;;;0.52;;
76447;SDS011;65284;51.040;13.722;2023-08-07T12:23:32;1.35;;;0.50;;
76447;SDS011;65284;51.040;13.722;2023-08-07T12:25:59;1.45;;;0.60;;
76447;SDS011;65284;51.040;13.722;2023-08-07T12:28:26;1.42;;;0.43;;
76447;SDS011;65284;51.040;13.722;2023-08-07T12:30:53;1.08;;;0.40;;
76447;SDS011;65284;51.040;13.722;2023-08-07T12:33:20;2.72;;;0.40;;
76447;SDS011;65284;51.040;13.722;2023-08-07T12:35:46;1.27;;;0.50;;
76447;SDS011;65284;51.040;13.722;2023-08-07T12:38:13;0.77;;;0.52;;
76447;SDS011;65284;51.040;13.722;2023-08-07T12:40:41;3.60;;;0.57;;
76447;SDS011;65284;51.040;13.722;2023-08-07T12:43:09;1.02;;;0.50;;
76447;SDS011;65284;51.040;13.722;2023-08-07T12:45:36;1.27;;;0.40;;
76447;SDS011;65284;51.040;13.722;2023-08-07T12:48:06;1.95;;;0.50;;
76447;SDS011;65284;51.040;13.722;2023-08-07T12:50:33;1.23;;;0.45;;
76447;SDS011;65284;51.040;13.722;2023-08-07T12:53:00;1.45;;;0.40;;
76447;SDS011;65284;51.040;13.722;2023-08-07T12:55:27;2.08;;;0.55;;
76447;SDS011;65284;51.040;13.722;2023-08-07T12:57:54;2.60;;;0.60;;
76447;SDS011;65284;51.040;13.722;2023-08-07T13:00:22;3.25;;;0.65;;
76447;SDS011;65284;51.040;13.722;2023-08-07T13:02:49;1.10;;;0.47;;
76447;SDS011;65284;51.040;13.722;2023-08-07T13:05:16;2.30;;;0.70;;
76447;SDS011;65284;51.040;13.722;2023-08-07T13:07:45;3.40;;;0.60;;
76447;SDS011;65284;51.040;13.722;2023-08-07T13:10:15;2.47;;;0.50;;
76447;SDS011;65284;51.040;13.722;2023-08-07T13:12:43;0.98;;;0.50;;
76447;SDS011;65284;51.040;13.722;2023-08-07T13:15:13;3.15;;;0.60;;
76447;SDS011;65284;51.040;13.722;2023-08-07T13:17:41;1.85;;;0.70;;
76447;SDS011;65284;51.040;13.722;2023-08-07T13:20:09;1.50;;;0.45;;
76447;SDS011;65284;51.040;13.722;2023-08-07T13:22:37;1.15;;;0.50;;
76447;SDS011;65284;51.040;13.722;2023-08-07T13:25:04;0.88;;;0.43;;
76447;SDS011;65284;51.040;13.722;2023-08-07T13:27:31;1.75;;;0.40;;
76447;SDS011;65284;51.040;13.722;2023-08-07T13:29:58;0.90;;;0.40;;
76447;SDS011;65284;51.040;13.722;2023-08-07T13:32:25;1.58;;;0.30;;
76447;SDS011;65284;51.040;13.722;2023-08-07T13:34:52;0.95;;;0.35;;
76447;SDS011;65284;51.040;13.722;2023-08-07T13:37:19;2.88;;;0.30;;
76447;SDS011;65284;51.040;13.722;2023-08-07T13:39:46;1.60;;;0.30;;
76447;SDS011;65284;51.040;13.722;2023-08-07T13:44:41;1.05;;;0.30;;
76447;SDS011;65284;51.040;13.722;2023-08-07T13:47:08;1.85;;;0.38;;
76447;SDS011;65284;51.040;13.722;2023-08-07T13:49:36;2.25;;;0.38;;
76447;SDS011;65284;51.040;13.722;2023-08-07T13:52:03;1.95;;;0.30;;
76447;SDS011;65284;51.040;13.722;2023-08-07T13:54:30;2.05;;;0.32;;
76447;SDS011;65284;51.040;13.722;2023-08-07T13:56:56;3.25;;;0.57;;
76447;SDS011;65284;51.040;13.722;2023-08-07T13:59:23;1.15;;;0.30;;
76447;SDS011;65284;51.040;13.722;2023-08-07T14:01:49;1.00;;;0.40;;
76447;SDS011;65284;51.040;13.722;2023-08-07T14:04:16;0.90;;;0.40;;
76447;SDS011;65284;51.040;13.722;2023-08-07T14:06:42;3.00;;;0.40;;
76447;SDS011;65284;51.040;13.722;2023-08-07T14:09:10;1.70;;;0.50;;
76447;SDS011;65284;51.040;13.722;2023-08-07T14:11:37;6.28;;;0.90;;
76447;SDS011;65284;51.040;13.722;2023-08-07T14:14:04;2.20;;;0.73;;
76447;SDS011;65284;51.040;13.722;2023-08-07T14:16:30;4.15;;;0.70;;
76447;SDS011;65284;51.040;13.722;2023-08-07T14:18:57;4.43;;;1.15;;
76447;SDS011;65284;51.040;13.722;2023-08-07T14:21:24;2.60;;;0.90;;
76447;SDS011;65284;51.040;13.722;2023-08-07T14:23:51;2.85;;;0.90;;
76447;SDS011;65284;51.040;13.722;2023-08-07T14:26:17;6.13;;;0.90;;
76447;SDS011;65284;51.040;13.722;2023-08-07T14:28:44;2.72;;;1.10;;
76447;SDS011;65284;51.040;13.722;2023-08-07T14:31:11;1.65;;;0.88;;
76447;SDS011;65284;51.040;13.722;2023-08-07T14:33:38;3.17;;;0.90;;
76447;SDS011;65284;51.040;13.722;2023-08-07T14:36:04;2.50;;;0.82;;
76447;SDS011;65284;51.040;13.722;2023-08-07T14:38:31;11.25;;;1.83;;
76447;SDS011;65284;51.040;13.722;2023-08-07T14:40:58;5.57;;;1.10;;
76447;SDS011;65284;51.040;13.722;2023-08-07T14:43:29;4.03;;;1.05;;
76447;SDS011;65284;51.040;13.722;2023-08-07T14:45:57;1.55;;;0.90;;
76447;SDS011;65284;51.040;13.722;2023-08-07T14:48:24;4.35;;;0.90;;
76447;SDS011;65284;51.040;13.722;2023-08-07T14:50:51;1.90;;;0.77;;
76447;SDS011;65284;51.040;13.722;2023-08-07T14:53:17;1.90;;;0.60;;
76447;SDS011;65284;51.040;13.722;2023-08-07T14:55:44;1.65;;;0.70;;
76447;SDS011;65284;51.040;13.722;2023-08-07T14:58:11;2.50;;;0.80;;
76447;SDS011;65284;51.040;13.722;2023-08-07T15:00:38;1.48;;;0.50;;
76447;SDS011;65284;51.040;13.722;2023-08-07T15:03:05;1.83;;;0.70;;
76447;SDS011;65284;51.040;13.722;2023-08-07T15:05:32;2.63;;;0.55;;